createdAt,value
2019-05-10T00:02:52.821Z,96045.87
2019-05-10T00:06:18.434Z,96053.34
2019-05-10T00:09:25.073Z,96055.94
2019-05-10T00:12:42.127Z,96056.82
2019-05-10T00:15:48.758Z,96057.22
2019-05-10T00:18:55.266Z,96063.90
2019-05-10T00:22:02.172Z,96063.69
2019-05-10T00:25:09.297Z,96065.55
2019-05-10T00:28:15.683Z,96073.59
2019-05-10T00:31:22.770Z,96075.53
2019-05-10T00:34:29.281Z,96072.16
2019-05-10T00:37:35.903Z,96070.99
2019-05-10T00:40:42.490Z,96074.23
2019-05-10T00:43:49.162Z,96070.82
2019-05-10T00:46:56.000Z,96076.19
2019-05-10T00:50:02.676Z,96080.09
2019-05-10T00:53:09.297Z,96085.37
2019-05-10T00:56:17.172Z,96085.45
2019-05-10T00:59:23.879Z,96084.65
2019-05-10T01:02:31.044Z,96089.37
2019-05-10T01:05:37.584Z,96092.09
2019-05-10T01:08:44.390Z,96090.29
2019-05-10T01:11:51.051Z,96095.05
2019-05-10T01:14:58.726Z,96093.20
2019-05-10T01:18:05.288Z,96099.25
2019-05-10T01:21:12.401Z,96104.73
2019-05-10T01:24:19.901Z,96107.25
2019-05-10T01:27:28.694Z,96110.77
2019-05-10T01:30:35.275Z,96113.65
2019-05-10T01:33:42.071Z,96115.05
2019-05-10T01:36:48.555Z,96115.16
2019-05-10T01:39:55.233Z,96112.69
2019-05-10T01:43:01.827Z,96116.40
2019-05-10T01:46:08.371Z,96119.88
2019-05-10T01:49:14.865Z,96127.72
2019-05-10T01:52:21.325Z,96120.52
2019-05-10T01:55:27.803Z,96126.81
2019-05-10T01:58:34.310Z,96133.08
2019-05-10T02:01:40.999Z,96135.88
2019-05-10T02:04:47.474Z,96140.99
2019-05-10T02:07:53.876Z,96145.39
2019-05-10T02:11:02.164Z,96146.08
2019-05-10T02:14:08.784Z,96144.67
2019-05-10T02:17:15.850Z,96148.72
2019-05-10T02:20:22.350Z,96146.66
2019-05-10T02:23:29.313Z,96151.85
2019-05-10T02:26:36.173Z,96157.91
2019-05-10T02:29:42.918Z,96159.78
2019-05-10T02:32:49.376Z,96158.34
2019-05-10T02:35:56.123Z,96158.71
2019-05-10T02:39:02.616Z,96164.38
2019-05-10T02:42:10.275Z,96166.83
2019-05-10T02:45:16.996Z,96169.49
2019-05-10T02:48:23.489Z,96168.41
2019-05-10T02:51:30.164Z,96173.30
2019-05-10T02:54:36.769Z,96173.36
2019-05-10T02:57:43.764Z,96179.78
2019-05-10T03:00:53.018Z,96180.02
2019-05-10T03:04:03.041Z,96185.81
2019-05-10T03:07:10.765Z,96185.43
2019-05-10T03:10:17.607Z,96192.63
2019-05-10T03:13:31.147Z,96194.37
2019-05-10T03:16:40.430Z,96204.13
2019-05-10T03:19:48.133Z,96208.88
2019-05-10T03:22:55.461Z,96213.81
2019-05-10T03:26:02.121Z,96215.09
2019-05-10T03:29:08.687Z,96221.41
2019-05-10T03:32:15.546Z,96224.32
2019-05-10T03:35:21.982Z,96229.13
2019-05-10T03:38:28.718Z,96238.67
2019-05-10T03:41:35.495Z,96238.83
2019-05-10T03:44:43.001Z,96237.27
2019-05-10T03:47:49.783Z,96241.31
2019-05-10T03:50:56.282Z,96245.59
2019-05-10T03:54:02.752Z,96243.33
2019-05-10T03:57:13.927Z,96244.55
2019-05-10T04:00:18.446Z,96245.95
2019-05-10T04:03:25.031Z,96254.91
2019-05-10T04:06:31.508Z,96256.80
2019-05-10T04:09:38.083Z,96263.19
2019-05-10T04:12:44.776Z,96255.81
2019-05-10T04:15:55.188Z,96264.72
2019-05-10T04:19:01.818Z,96272.02
2019-05-10T04:22:08.276Z,96272.67
2019-05-10T04:25:15.168Z,96272.16
2019-05-10T04:28:21.759Z,96278.19
2019-05-10T04:31:27.891Z,96277.03
2019-05-10T04:34:34.357Z,96281.87
2019-05-10T04:37:41.008Z,96283.73
2019-05-10T04:40:47.545Z,96287.49
2019-05-10T04:43:54.029Z,96295.98
2019-05-10T04:47:00.683Z,96294.03
2019-05-10T04:50:07.326Z,96295.69
2019-05-10T04:53:13.879Z,96302.78
2019-05-10T04:56:20.545Z,96307.42
2019-05-10T04:59:27.000Z,96307.50
2019-05-10T05:02:33.541Z,96308.48
2019-05-10T05:05:40.228Z,96322.42
2019-05-10T05:08:46.811Z,96327.73
2019-05-10T05:11:55.674Z,96327.37
2019-05-10T05:15:02.223Z,96329.09
2019-05-10T05:18:09.193Z,96332.34
2019-05-10T05:21:15.973Z,96336.24
2019-05-10T05:24:24.351Z,96335.34
2019-05-10T05:27:31.256Z,96343.27
2019-05-10T05:30:38.902Z,96344.14
2019-05-10T05:33:45.470Z,96347.02
2019-05-10T05:36:52.066Z,96353.72
2019-05-10T05:39:58.499Z,96358.83
2019-05-10T05:43:08.285Z,96363.52
2019-05-10T05:46:14.610Z,96363.43
2019-05-10T05:49:21.486Z,96367.34
2019-05-10T05:52:28.012Z,96374.95
2019-05-10T05:55:34.491Z,96374.88
2019-05-10T05:58:44.640Z,96378.13
2019-05-10T06:01:49.152Z,96383.68
2019-05-10T06:04:55.608Z,96387.08
2019-05-10T06:08:02.203Z,96384.81
2019-05-10T06:11:09.271Z,96384.96
2019-05-10T06:14:17.048Z,96375.56
2019-05-10T06:17:28.826Z,96395.69
2019-05-10T06:20:31.900Z,96401.41
2019-05-10T06:23:38.734Z,96409.70
2019-05-10T06:26:45.324Z,96417.67
2019-05-10T06:29:51.816Z,96419.59
2019-05-10T06:33:00.765Z,96418.33
2019-05-10T06:36:07.079Z,96418.50
2019-05-10T06:39:13.843Z,96416.75
2019-05-10T06:42:21.407Z,96418.47
2019-05-10T06:45:28.111Z,96427.44
2019-05-10T06:48:34.878Z,96428.59
2019-05-10T06:51:42.787Z,96425.69
2019-05-10T06:54:49.750Z,96428.02
2019-05-10T06:58:00.583Z,96422.32
2019-05-10T07:01:04.421Z,96425.64
2019-05-10T07:04:11.051Z,96417.02
2019-05-10T07:07:33.020Z,96416.34
2019-05-10T07:10:25.860Z,96415.65
2019-05-10T07:13:32.407Z,96418.28
2019-05-10T07:16:38.963Z,96418.13
2019-05-10T07:19:53.578Z,96418.09
2019-05-10T07:22:53.864Z,96419.26
2019-05-10T07:26:02.175Z,96416.22
2019-05-10T07:29:08.645Z,96423.24
2019-05-10T07:32:16.320Z,96428.75
2019-05-10T07:35:23.585Z,96428.42
2019-05-10T07:38:31.160Z,96425.91
2019-05-10T07:41:40.676Z,96424.53
2019-05-10T07:44:48.843Z,96432.95
2019-05-10T07:48:02.456Z,96430.03
2019-05-10T07:51:06.778Z,96423.84
2019-05-10T07:54:13.474Z,96423.05
2019-05-10T07:57:24.647Z,96433.45
2019-05-10T08:00:30.697Z,96446.45
2019-05-10T08:03:44.134Z,96449.71
2019-05-10T08:06:48.697Z,96456.50
2019-05-10T08:09:54.977Z,96457.00
2019-05-10T08:13:04.591Z,96457.09
2019-05-10T08:16:18.964Z,96460.86
2019-05-10T08:19:19.610Z,96469.05
2019-05-10T08:22:26.165Z,96456.95
2019-05-10T08:25:39.622Z,96463.07
2019-05-10T08:28:44.662Z,96464.61
2019-05-10T08:31:53.608Z,96471.05
2019-05-10T08:34:58.973Z,96470.64
2019-05-10T08:38:05.740Z,96484.33
2019-05-10T08:41:16.462Z,96487.08
2019-05-10T08:44:23.909Z,96484.12
2019-05-10T08:47:32.168Z,96476.20
2019-05-10T08:50:49.548Z,96481.82
2019-05-10T08:53:47.280Z,96485.14
2019-05-10T08:57:01.189Z,96497.92
2019-05-10T09:00:08.777Z,96491.44
2019-05-10T09:03:18.370Z,96486.92
2019-05-10T09:06:22.054Z,96486.51
2019-05-10T09:09:33.733Z,96494.37
2019-05-10T09:12:44.255Z,96508.59
2019-05-10T09:15:51.704Z,96504.59
2019-05-10T09:18:53.794Z,96508.11
2019-05-10T09:22:01.985Z,96509.33
2019-05-10T09:25:08.607Z,96514.02
2019-05-10T09:28:17.108Z,96521.52
2019-05-10T09:31:25.697Z,96524.72
2019-05-10T09:34:32.595Z,96528.87
2019-05-10T09:37:42.091Z,96535.84
2019-05-10T09:40:55.566Z,96535.03
2019-05-10T09:43:58.138Z,96547.48
2019-05-10T09:47:07.118Z,96536.02
2019-05-10T09:50:14.049Z,96540.36
2019-05-10T09:53:25.708Z,96529.67
2019-05-10T09:56:32.785Z,96534.96
2019-05-10T09:59:37.140Z,96546.66
2019-05-10T10:02:47.721Z,96551.00
2019-05-10T10:05:55.056Z,96556.89
2019-05-10T10:09:00.895Z,96552.19
2019-05-10T10:12:09.520Z,96552.03
2019-05-10T10:15:25.301Z,96559.63
2019-05-10T10:18:25.576Z,96556.52
2019-05-10T10:21:35.567Z,96553.88
2019-05-10T10:24:41.193Z,96556.39
2019-05-10T10:27:48.075Z,96563.13
2019-05-10T10:31:00.024Z,96551.27
2019-05-10T10:34:03.402Z,96563.93
2019-05-10T10:37:14.595Z,96565.45
2019-05-10T10:40:20.384Z,96568.67
2019-05-10T10:43:27.360Z,96564.14
2019-05-10T10:46:34.801Z,96571.48
2019-05-10T10:49:41.618Z,96569.69
2019-05-10T10:52:48.168Z,96574.82
2019-05-10T10:56:00.883Z,96566.62
2019-05-10T10:59:03.198Z,96579.23
2019-05-10T11:02:32.130Z,96581.64
2019-05-10T11:05:20.557Z,96585.48
2019-05-10T11:08:27.083Z,96582.41
2019-05-10T11:11:38.966Z,96585.84
2019-05-10T11:14:45.332Z,96584.80
2019-05-10T11:17:50.737Z,96586.13
2019-05-10T11:20:57.301Z,96585.84
2019-05-10T11:24:03.761Z,96590.62
2019-05-10T11:27:13.097Z,96593.92
2019-05-10T11:30:21.354Z,96595.06
2019-05-10T11:33:32.958Z,96604.40
2019-05-10T11:36:40.509Z,96604.16
2019-05-10T11:39:47.099Z,96606.53
2019-05-10T11:42:54.999Z,96604.06
2019-05-10T11:46:01.725Z,96601.48
2019-05-10T11:49:10.573Z,96604.21
2019-05-10T11:52:16.619Z,96597.77
2019-05-10T11:55:23.263Z,96605.92
2019-05-10T11:58:31.147Z,96612.42
2019-05-10T12:01:41.697Z,96615.09
2019-05-10T12:04:46.062Z,96619.78
2019-05-10T12:07:54.965Z,96626.34
2019-05-10T12:11:12.380Z,96621.27
2019-05-10T12:14:13.597Z,96627.08
2019-05-10T12:17:17.770Z,96627.06
2019-05-10T12:20:39.375Z,96631.64
2019-05-10T12:23:32.759Z,96638.64
2019-05-10T12:29:55.955Z,96641.67
2019-05-10T12:32:58.095Z,96639.74
2019-05-10T12:36:04.805Z,96648.02
2019-05-10T12:39:11.735Z,96650.50
2019-05-10T12:42:18.620Z,96643.08
2019-05-10T12:45:25.422Z,96639.73
2019-05-10T12:48:35.603Z,96644.44
2019-05-10T12:51:40.913Z,96644.45
2019-05-10T12:54:48.869Z,96641.14
2019-05-10T12:57:55.498Z,96642.52
2019-05-10T13:01:02.036Z,96645.09
2019-05-10T13:04:14.746Z,96655.95
2019-05-10T13:07:16.872Z,96655.39
2019-05-10T13:10:23.375Z,96656.87
2019-05-10T13:13:30.322Z,96659.36
2019-05-10T13:16:36.984Z,96658.53
2019-05-10T13:19:43.457Z,96660.36
2019-05-10T13:22:50.079Z,96665.95
2019-05-10T13:25:56.861Z,96667.73
2019-05-10T13:29:08.078Z,96670.48
2019-05-10T13:32:14.909Z,96676.94
2019-05-10T13:35:20.061Z,96674.08
2019-05-10T13:38:27.244Z,96671.03
2019-05-10T13:41:33.732Z,96677.47
2019-05-10T13:44:42.935Z,96687.95
2019-05-10T13:47:48.602Z,96681.81
2019-05-10T13:50:55.201Z,96683.55
2019-05-10T13:54:04.562Z,96679.66
2019-05-10T13:57:10.291Z,96684.23
2019-05-10T14:00:17.151Z,96697.18
2019-05-10T14:03:23.703Z,96702.14
2019-05-10T14:06:30.291Z,96700.02
2019-05-10T14:09:37.128Z,96706.91
2019-05-10T14:12:44.111Z,96704.52
2019-05-10T14:15:50.707Z,96701.66
2019-05-10T14:18:57.328Z,96698.08
2019-05-10T14:22:04.266Z,96696.61
2019-05-10T14:25:11.047Z,96691.92
2019-05-10T14:28:17.709Z,96696.62
2019-05-10T14:31:24.266Z,96702.50
2019-05-10T14:34:30.832Z,96703.34
2019-05-10T14:37:37.389Z,96705.28
2019-05-10T14:40:44.973Z,96705.54
2019-05-10T14:43:51.631Z,96697.94
2019-05-10T14:46:58.230Z,96704.37
2019-05-10T14:50:04.930Z,96699.95
2019-05-10T14:53:11.546Z,96701.06
2019-05-10T14:56:18.102Z,96702.69
2019-05-10T14:59:24.679Z,96704.27
2019-05-10T15:02:31.600Z,96705.98
2019-05-10T15:05:38.106Z,96710.87
2019-05-10T15:08:44.772Z,96711.08
2019-05-10T15:11:51.387Z,96714.28
2019-05-10T15:14:57.951Z,96715.48
2019-05-10T15:18:05.665Z,96713.53
2019-05-10T15:21:12.299Z,96707.39
2019-05-10T15:24:18.822Z,96708.23
2019-05-10T15:27:25.432Z,96712.92
2019-05-10T15:30:31.889Z,96710.63
2019-05-10T15:33:38.845Z,96714.09
2019-05-10T15:36:46.795Z,96708.97
2019-05-10T15:39:53.375Z,96710.80
2019-05-10T15:43:02.926Z,96707.77
2019-05-10T15:46:08.131Z,96711.28
2019-05-10T15:49:22.693Z,96714.03
2019-05-10T15:52:23.501Z,96714.00
2019-05-10T15:55:30.152Z,96711.31
2019-05-10T15:58:40.471Z,96721.97
2019-05-10T16:01:45.838Z,96708.30
2019-05-10T16:04:54.477Z,96720.48
2019-05-10T16:08:01.099Z,96715.23
2019-05-10T16:11:17.925Z,96719.10
2019-05-10T16:14:15.884Z,96720.20
2019-05-10T16:17:23.887Z,96725.33
2019-05-10T16:20:31.616Z,96729.03
2019-05-10T16:23:41.518Z,96724.79
2019-05-10T16:26:47.398Z,96734.30
2019-05-10T16:29:53.880Z,96735.48
2019-05-10T16:33:00.455Z,96733.81
2019-05-10T16:36:08.401Z,96739.17
2019-05-10T16:39:15.050Z,96740.99
2019-05-10T16:42:21.817Z,96739.99
2019-05-10T16:45:28.475Z,96744.70
2019-05-10T16:48:34.947Z,96755.16
2019-05-10T16:51:42.364Z,96759.48
2019-05-10T16:54:49.759Z,96761.31
2019-05-10T16:57:56.205Z,96759.09
2019-05-10T17:01:02.991Z,96757.23
2019-05-10T17:04:09.568Z,96766.82
2019-05-10T17:07:19.015Z,96759.30
2019-05-10T17:10:27.091Z,96760.20
2019-05-10T17:13:36.330Z,96760.41
2019-05-10T17:16:41.009Z,96759.66
2019-05-10T17:19:47.460Z,96759.76
2019-05-10T17:22:53.959Z,96758.12
2019-05-10T17:26:00.618Z,96756.06
2019-05-10T17:29:12.367Z,96751.41
2019-05-10T17:32:18.652Z,96747.06
2019-05-10T17:35:23.769Z,96757.76
2019-05-10T17:38:31.810Z,96757.84
2019-05-10T17:41:38.384Z,96766.86
2019-05-10T17:44:44.863Z,96770.28
2019-05-10T17:47:51.678Z,96774.05
2019-05-10T17:50:58.132Z,96774.22
2019-05-10T17:54:04.842Z,96772.02
2019-05-10T17:57:16.626Z,96777.87
2019-05-10T18:00:19.828Z,96781.55
2019-05-10T18:03:26.279Z,96774.16
2019-05-10T18:06:33.224Z,96781.92
2019-05-10T18:09:39.770Z,96784.83
2019-05-10T18:12:46.329Z,96785.96
2019-05-10T18:15:52.809Z,96786.94
2019-05-10T18:18:59.384Z,96792.30
2019-05-10T18:22:06.591Z,96789.49
2019-05-10T18:25:20.378Z,96799.58
2019-05-10T18:28:22.020Z,96798.59
2019-05-10T18:31:28.742Z,96800.94
2019-05-10T18:34:35.648Z,96796.77
2019-05-10T18:37:42.225Z,96794.13
2019-05-10T18:40:48.713Z,96794.13
2019-05-10T18:43:55.349Z,96798.59
2019-05-10T18:47:01.829Z,96802.66
2019-05-10T18:50:08.679Z,96799.69
2019-05-10T18:53:15.241Z,96802.75
2019-05-10T18:56:29.295Z,96807.73
2019-05-10T18:59:29.981Z,96810.19
2019-05-10T19:02:36.686Z,96816.94
2019-05-10T19:05:43.113Z,96817.55
2019-05-10T19:08:50.256Z,96817.86
2019-05-10T19:11:56.797Z,96825.34
2019-05-10T19:15:09.074Z,96818.80
2019-05-10T19:18:17.575Z,96825.73
2019-05-10T19:21:25.029Z,96823.75
2019-05-10T19:24:30.407Z,96827.86
2019-05-10T19:27:38.713Z,96837.45
2019-05-10T19:30:47.267Z,96835.36
2019-05-10T19:33:53.750Z,96844.46
2019-05-10T19:37:00.271Z,96841.73
2019-05-10T19:40:07.920Z,96845.03
2019-05-10T19:43:15.328Z,96851.80
2019-05-10T19:46:23.836Z,96849.48
2019-05-10T19:49:30.486Z,96845.34
2019-05-10T19:52:37.455Z,96852.96
2019-05-10T19:55:43.985Z,96846.57
2019-05-10T19:58:51.624Z,96864.83
2019-05-10T20:01:58.328Z,96880.41
2019-05-10T20:05:05.629Z,96909.10
2019-05-10T20:09:22.384Z,96918.72
2019-05-10T20:12:28.917Z,96921.69
2019-05-10T20:15:35.452Z,96917.66
2019-05-10T20:18:41.957Z,96927.58
2019-05-10T20:21:48.460Z,96922.20
2019-05-10T20:24:54.945Z,96919.89
2019-05-10T20:28:01.409Z,96919.16
2019-05-10T20:31:07.899Z,96917.57
2019-05-10T20:34:14.626Z,96913.13
2019-05-10T20:37:21.196Z,96899.88
2019-05-10T20:40:27.610Z,96877.97
2019-05-10T20:43:34.417Z,96855.41
2019-05-10T20:46:40.973Z,96850.35
2019-05-10T20:49:47.464Z,96862.07
2019-05-10T20:52:54.210Z,96869.23
2019-05-10T20:56:00.688Z,96887.48
2019-05-10T20:59:07.157Z,96902.36
2019-05-10T21:02:13.877Z,96910.22
2019-05-10T21:05:20.407Z,96914.05
2019-05-10T21:08:26.913Z,96909.97
2019-05-10T21:11:33.366Z,96905.23
2019-05-10T21:14:39.966Z,96911.20
2019-05-10T21:17:46.574Z,96912.84
2019-05-10T21:20:53.163Z,96903.75
2019-05-10T21:23:59.790Z,96897.52
2019-05-10T21:27:06.480Z,96888.88
2019-05-10T21:30:12.991Z,96892.14
2019-05-10T21:33:19.382Z,96888.83
2019-05-10T21:36:25.928Z,96897.80
2019-05-10T21:39:32.515Z,96893.66
2019-05-10T21:42:39.013Z,96890.94
2019-05-10T21:45:45.816Z,96883.59
2019-05-10T21:48:52.460Z,96888.71
2019-05-10T21:51:58.976Z,96882.84
2019-05-10T21:55:06.120Z,96890.37
2019-05-10T21:58:12.617Z,96898.23
2019-05-10T22:01:19.100Z,96902.12
2019-05-10T22:04:25.596Z,96909.83
2019-05-10T22:07:32.094Z,96918.34
2019-05-10T22:10:38.719Z,96919.06
2019-05-10T22:13:45.657Z,96926.62
2019-05-10T22:16:52.205Z,96922.17
2019-05-10T22:19:58.805Z,96926.46
2019-05-10T22:23:05.723Z,96922.98
2019-05-10T22:26:12.204Z,96919.19
2019-05-10T22:29:18.909Z,96924.42
2019-05-10T22:32:25.312Z,96926.98
2019-05-10T22:35:31.885Z,96933.89
2019-05-10T22:38:40.891Z,96936.44
2019-05-10T22:41:47.431Z,96935.73
2019-05-10T22:44:54.102Z,96938.88
2019-05-10T22:48:00.648Z,96942.52
2019-05-10T22:51:07.317Z,96928.34
2019-05-10T22:54:15.480Z,96938.09
2019-05-10T22:57:22.406Z,96943.59
2019-05-10T23:00:29.242Z,96943.17
2019-05-10T23:03:35.704Z,96953.27
2019-05-10T23:06:44.532Z,96951.16
2019-05-10T23:09:51.027Z,96944.37
2019-05-10T23:12:57.527Z,96943.77
2019-05-10T23:16:04.046Z,96931.14
2019-05-10T23:19:10.597Z,96923.17
2019-05-10T23:22:16.992Z,96909.23
2019-05-10T23:25:23.776Z,96902.27
2019-05-10T23:28:30.247Z,96911.09
2019-05-10T23:31:36.737Z,96918.06
2019-05-10T23:34:43.407Z,96918.80
2019-05-10T23:37:49.912Z,96924.44
2019-05-10T23:40:56.437Z,96916.41
2019-05-10T23:44:03.334Z,96909.82
2019-05-10T23:47:09.804Z,96910.09
2019-05-10T23:50:16.357Z,96898.81
2019-05-10T23:53:23.034Z,96892.48
2019-05-10T23:56:29.562Z,96904.35
2019-05-10T23:59:36.479Z,96900.23
